sensor_id;sensor_type;location;lat;lon;timestamp;P1;durP1;ratioP1;P2;durP2;ratioP2
19643;SDS011;9970;-36.854;174.870;2024-01-30T00:02:02;1.10;;;0.80;;
19643;SDS011;9970;-36.854;174.870;2024-01-30T00:04:35;1.00;;;1.00;;
19643;SDS011;9970;-36.854;174.870;2024-01-30T00:07:09;3.20;;;1.53;;
19643;SDS011;9970;-36.854;174.870;2024-01-30T00:09:42;0.80;;;0.80;;
19643;SDS011;9970;-36.854;174.870;2024-01-30T00:12:20;2.20;;;1.30;;
19643;SDS011;9970;-36.854;174.870;2024-01-30T00:14:53;2.17;;;1.10;;
19643;SDS011;9970;-36.854;174.870;2024-01-30T00:17:28;1.40;;;1.40;;
19643;SDS011;9970;-36.854;174.870;2024-01-30T00:20:01;3.77;;;1.67;;
19643;SDS011;9970;-36.854;174.870;2024-01-30T00:22:36;1.30;;;1.20;;
19643;SDS011;9970;-36.854;174.870;2024-01-30T00:25:09;3.40;;;1.90;;
19643;SDS011;9970;-36.854;174.870;2024-01-30T00:27:42;5.17;;;1.63;;
19643;SDS011;9970;-36.854;174.870;2024-01-30T00:30:15;3.37;;;1.87;;
19643;SDS011;9970;-36.854;174.870;2024-01-30T00:32:49;5.40;;;1.67;;
19643;SDS011;9970;-36.854;174.870;2024-01-30T00:35:22;4.00;;;2.17;;
19643;SDS011;9970;-36.854;174.870;2024-01-30T00:37:55;6.50;;;2.30;;
19643;SDS011;9970;-36.854;174.870;2024-01-30T00:40:28;10.73;;;2.00;;
19643;SDS011;9970;-36.854;174.870;2024-01-30T00:43:01;6.00;;;2.70;;
19643;SDS011;9970;-36.854;174.870;2024-01-30T00:45:35;8.70;;;2.40;;
19643;SDS011;9970;-36.854;174.870;2024-01-30T00:48:08;6.07;;;2.10;;
19643;SDS011;9970;-36.854;174.870;2024-01-30T00:50:41;5.40;;;2.17;;
19643;SDS011;9970;-36.854;174.870;2024-01-30T00:53:14;4.07;;;1.77;;
19643;SDS011;9970;-36.854;174.870;2024-01-30T00:55:47;3.77;;;1.73;;
19643;SDS011;9970;-36.854;174.870;2024-01-30T00:58:20;2.13;;;1.57;;
19643;SDS011;9970;-36.854;174.870;2024-01-30T01:00:53;6.27;;;2.30;;
19643;SDS011;9970;-36.854;174.870;2024-01-30T01:03:28;3.00;;;1.80;;
19643;SDS011;9970;-36.854;174.870;2024-01-30T01:06:01;3.27;;;1.30;;
19643;SDS011;9970;-36.854;174.870;2024-01-30T01:08:35;3.63;;;1.53;;
19643;SDS011;9970;-36.854;174.870;2024-01-30T01:11:08;3.43;;;1.70;;
19643;SDS011;9970;-36.854;174.870;2024-01-30T01:13:40;3.13;;;1.40;;
19643;SDS011;9970;-36.854;174.870;2024-01-30T01:16:14;3.53;;;1.67;;
19643;SDS011;9970;-36.854;174.870;2024-01-30T01:18:52;2.47;;;1.60;;
19643;SDS011;9970;-36.854;174.870;2024-01-30T01:21:21;1.77;;;1.60;;
19643;SDS011;9970;-36.854;174.870;2024-01-30T01:23:54;6.20;;;2.10;;
19643;SDS011;9970;-36.854;174.870;2024-01-30T01:26:27;6.23;;;2.37;;
19643;SDS011;9970;-36.854;174.870;2024-01-30T01:29:02;4.03;;;1.93;;
19643;SDS011;9970;-36.854;174.870;2024-01-30T01:31:36;2.00;;;1.90;;
19643;SDS011;9970;-36.854;174.870;2024-01-30T01:34:11;3.23;;;2.50;;
19643;SDS011;9970;-36.854;174.870;2024-01-30T01:36:45;3.53;;;1.70;;
19643;SDS011;9970;-36.854;174.870;2024-01-30T01:39:18;6.33;;;1.70;;
19643;SDS011;9970;-36.854;174.870;2024-01-30T01:41:51;2.60;;;1.53;;
19643;SDS011;9970;-36.854;174.870;2024-01-30T01:44:27;10.03;;;2.03;;
19643;SDS011;9970;-36.854;174.870;2024-01-30T01:47:00;6.07;;;1.90;;
19643;SDS011;9970;-36.854;174.870;2024-01-30T01:49:34;3.53;;;1.73;;
19643;SDS011;9970;-36.854;174.870;2024-01-30T01:52:07;3.90;;;1.43;;
19643;SDS011;9970;-36.854;174.870;2024-01-30T01:54:40;6.83;;;1.90;;
19643;SDS011;9970;-36.854;174.870;2024-01-30T01:57:13;3.03;;;1.50;;
19643;SDS011;9970;-36.854;174.870;2024-01-30T01:59:47;8.10;;;2.37;;
19643;SDS011;9970;-36.854;174.870;2024-01-30T02:02:20;4.23;;;1.90;;
19643;SDS011;9970;-36.854;174.870;2024-01-30T02:05:10;5.60;;;2.00;;
19643;SDS011;9970;-36.854;174.870;2024-01-30T02:07:39;3.37;;;1.73;;
19643;SDS011;9970;-36.854;174.870;2024-01-30T02:10:12;7.40;;;1.80;;
19643;SDS011;9970;-36.854;174.870;2024-01-30T02:12:46;3.20;;;1.47;;
19643;SDS011;9970;-36.854;174.870;2024-01-30T02:15:19;3.83;;;1.43;;
19643;SDS011;9970;-36.854;174.870;2024-01-30T02:17:52;3.30;;;1.87;;
19643;SDS011;9970;-36.854;174.870;2024-01-30T02:20:26;2.60;;;1.40;;
19643;SDS011;9970;-36.854;174.870;2024-01-30T02:23:01;4.00;;;1.60;;
19643;SDS011;9970;-36.854;174.870;2024-01-30T02:25:41;4.43;;;1.80;;
19643;SDS011;9970;-36.854;174.870;2024-01-30T02:28:17;7.37;;;1.37;;
19643;SDS011;9970;-36.854;174.870;2024-01-30T02:30:50;3.93;;;2.10;;
19643;SDS011;9970;-36.854;174.870;2024-01-30T02:33:24;2.53;;;1.60;;
19643;SDS011;9970;-36.854;174.870;2024-01-30T02:35:57;4.60;;;2.30;;
19643;SDS011;9970;-36.854;174.870;2024-01-30T02:38:30;3.43;;;1.50;;
19643;SDS011;9970;-36.854;174.870;2024-01-30T02:41:04;6.10;;;2.20;;
19643;SDS011;9970;-36.854;174.870;2024-01-30T02:43:36;3.10;;;1.50;;
19643;SDS011;9970;-36.854;174.870;2024-01-30T02:46:09;2.00;;;1.40;;
19643;SDS011;9970;-36.854;174.870;2024-01-30T02:48:43;4.13;;;2.20;;
19643;SDS011;9970;-36.854;174.870;2024-01-30T02:51:16;5.70;;;2.07;;
19643;SDS011;9970;-36.854;174.870;2024-01-30T02:53:49;4.43;;;1.73;;
19643;SDS011;9970;-36.854;174.870;2024-01-30T02:56:25;3.40;;;1.67;;
19643;SDS011;9970;-36.854;174.870;2024-01-30T02:58:58;3.03;;;1.40;;
19643;SDS011;9970;-36.854;174.870;2024-01-30T03:01:32;5.30;;;1.90;;
19643;SDS011;9970;-36.854;174.870;2024-01-30T03:04:06;5.67;;;1.90;;
19643;SDS011;9970;-36.854;174.870;2024-01-30T03:06:44;2.90;;;1.30;;
19643;SDS011;9970;-36.854;174.870;2024-01-30T03:09:20;2.73;;;1.40;;
19643;SDS011;9970;-36.854;174.870;2024-01-30T03:11:53;4.03;;;1.30;;
19643;SDS011;9970;-36.854;174.870;2024-01-30T03:14:26;2.60;;;1.20;;
19643;SDS011;9970;-36.854;174.870;2024-01-30T03:17:01;3.13;;;2.00;;
19643;SDS011;9970;-36.854;174.870;2024-01-30T03:19:34;3.27;;;1.80;;
19643;SDS011;9970;-36.854;174.870;2024-01-30T03:22:08;1.20;;;1.10;;
19643;SDS011;9970;-36.854;174.870;2024-01-30T03:24:41;6.50;;;1.17;;
19643;SDS011;9970;-36.854;174.870;2024-01-30T03:27:14;5.60;;;1.43;;
19643;SDS011;9970;-36.854;174.870;2024-01-30T03:29:47;1.37;;;1.20;;
19643;SDS011;9970;-36.854;174.870;2024-01-30T03:32:20;5.60;;;1.70;;
19643;SDS011;9970;-36.854;174.870;2024-01-30T03:34:53;4.93;;;1.73;;
19643;SDS011;9970;-36.854;174.870;2024-01-30T03:37:28;5.07;;;1.53;;
19643;SDS011;9970;-36.854;174.870;2024-01-30T03:40:01;2.10;;;0.90;;
19643;SDS011;9970;-36.854;174.870;2024-01-30T03:42:34;5.40;;;1.20;;
19643;SDS011;9970;-36.854;174.870;2024-01-30T03:45:08;6.63;;;1.67;;
19643;SDS011;9970;-36.854;174.870;2024-01-30T03:47:43;1.80;;;1.10;;
19643;SDS011;9970;-36.854;174.870;2024-01-30T03:50:15;6.13;;;1.20;;
19643;SDS011;9970;-36.854;174.870;2024-01-30T03:52:52;2.67;;;1.23;;
19643;SDS011;9970;-36.854;174.870;2024-01-30T03:55:28;3.30;;;1.30;;
19643;SDS011;9970;-36.854;174.870;2024-01-30T03:58:02;6.23;;;1.73;;
19643;SDS011;9970;-36.854;174.870;2024-01-30T04:00:35;1.83;;;1.23;;
19643;SDS011;9970;-36.854;174.870;2024-01-30T04:03:08;5.40;;;1.27;;
19643;SDS011;9970;-36.854;174.870;2024-01-30T04:05:41;8.03;;;1.83;;
19643;SDS011;9970;-36.854;174.870;2024-01-30T04:08:15;4.87;;;1.17;;
19643;SDS011;9970;-36.854;174.870;2024-01-30T04:10:48;1.30;;;1.20;;
19643;SDS011;9970;-36.854;174.870;2024-01-30T04:13:25;3.90;;;1.53;;
19643;SDS011;9970;-36.854;174.870;2024-01-30T04:16:03;3.17;;;1.50;;
19643;SDS011;9970;-36.854;174.870;2024-01-30T04:18:32;2.30;;;1.50;;
19643;SDS011;9970;-36.854;174.870;2024-01-30T04:21:05;2.20;;;1.50;;
19643;SDS011;9970;-36.854;174.870;2024-01-30T04:23:39;5.27;;;1.50;;
19643;SDS011;9970;-36.854;174.870;2024-01-30T04:26:12;4.70;;;2.10;;
19643;SDS011;9970;-36.854;174.870;2024-01-30T04:28:48;3.70;;;1.90;;
19643;SDS011;9970;-36.854;174.870;2024-01-30T04:31:21;2.63;;;1.60;;
19643;SDS011;9970;-36.854;174.870;2024-01-30T04:33:54;1.70;;;1.60;;
19643;SDS011;9970;-36.854;174.870;2024-01-30T04:36:27;3.13;;;1.97;;
19643;SDS011;9970;-36.854;174.870;2024-01-30T04:39:00;9.30;;;2.43;;
19643;SDS011;9970;-36.854;174.870;2024-01-30T04:41:33;3.47;;;2.00;;
19643;SDS011;9970;-36.854;174.870;2024-01-30T04:44:06;3.23;;;1.77;;
19643;SDS011;9970;-36.854;174.870;2024-01-30T04:46:44;11.00;;;1.93;;
19643;SDS011;9970;-36.854;174.870;2024-01-30T04:49:17;4.70;;;1.87;;
19643;SDS011;9970;-36.854;174.870;2024-01-30T04:51:50;6.40;;;1.77;;
19643;SDS011;9970;-36.854;174.870;2024-01-30T04:54:23;5.77;;;1.93;;
19643;SDS011;9970;-36.854;174.870;2024-01-30T04:56:56;4.27;;;2.20;;
19643;SDS011;9970;-36.854;174.870;2024-01-30T04:59:29;5.63;;;1.80;;
19643;SDS011;9970;-36.854;174.870;2024-01-30T05:02:02;5.37;;;2.10;;
19643;SDS011;9970;-36.854;174.870;2024-01-30T05:04:36;8.93;;;2.23;;
19643;SDS011;9970;-36.854;174.870;2024-01-30T05:07:09;4.97;;;2.90;;
19643;SDS011;9970;-36.854;174.870;2024-01-30T05:09:42;4.80;;;2.33;;
19643;SDS011;9970;-36.854;174.870;2024-01-30T05:12:15;4.10;;;2.47;;
19643;SDS011;9970;-36.854;174.870;2024-01-30T05:14:48;9.13;;;2.30;;
19643;SDS011;9970;-36.854;174.870;2024-01-30T05:17:21;8.80;;;2.77;;
19643;SDS011;9970;-36.854;174.870;2024-01-30T05:19:54;14.03;;;2.70;;
19643;SDS011;9970;-36.854;174.870;2024-01-30T05:22:28;4.00;;;2.53;;
19643;SDS011;9970;-36.854;174.870;2024-01-30T05:25:01;9.57;;;2.83;;
19643;SDS011;9970;-36.854;174.870;2024-01-30T05:27:34;12.53;;;3.17;;
19643;SDS011;9970;-36.854;174.870;2024-01-30T05:30:08;14.10;;;4.30;;
19643;SDS011;9970;-36.854;174.870;2024-01-30T05:32:50;5.60;;;2.50;;
19643;SDS011;9970;-36.854;174.870;2024-01-30T05:35:23;11.93;;;3.33;;
19643;SDS011;9970;-36.854;174.870;2024-01-30T05:37:56;8.07;;;3.20;;
19643;SDS011;9970;-36.854;174.870;2024-01-30T05:40:31;11.57;;;4.20;;
19643;SDS011;9970;-36.854;174.870;2024-01-30T05:43:04;9.90;;;3.83;;
19643;SDS011;9970;-36.854;174.870;2024-01-30T05:45:37;6.23;;;3.37;;
19643;SDS011;9970;-36.854;174.870;2024-01-30T05:48:10;9.30;;;3.30;;
19643;SDS011;9970;-36.854;174.870;2024-01-30T05:50:43;8.53;;;3.10;;
19643;SDS011;9970;-36.854;174.870;2024-01-30T05:53:17;3.93;;;2.83;;
19643;SDS011;9970;-36.854;174.870;2024-01-30T05:55:49;14.00;;;3.23;;
19643;SDS011;9970;-36.854;174.870;2024-01-30T05:58:22;13.20;;;3.10;;
19643;SDS011;9970;-36.854;174.870;2024-01-30T06:00:56;5.70;;;3.07;;
19643;SDS011;9970;-36.854;174.870;2024-01-30T06:03:29;10.07;;;3.27;;
19643;SDS011;9970;-36.854;174.870;2024-01-30T06:06:02;9.33;;;3.57;;
19643;SDS011;9970;-36.854;174.870;2024-01-30T06:08:35;8.23;;;3.27;;
19643;SDS011;9970;-36.854;174.870;2024-01-30T06:11:10;7.27;;;2.83;;
19643;SDS011;9970;-36.854;174.870;2024-01-30T06:13:42;4.30;;;3.10;;
19643;SDS011;9970;-36.854;174.870;2024-01-30T06:16:15;11.37;;;3.40;;
19643;SDS011;9970;-36.854;174.870;2024-01-30T06:18:53;5.30;;;3.00;;
19643;SDS011;9970;-36.854;174.870;2024-01-30T06:21:26;12.50;;;3.37;;
19643;SDS011;9970;-36.854;174.870;2024-01-30T06:24:00;20.63;;;3.10;;
19643;SDS011;9970;-36.854;174.870;2024-01-30T06:26:33;9.93;;;3.03;;
19643;SDS011;9970;-36.854;174.870;2024-01-30T06:29:07;7.87;;;2.70;;
19643;SDS011;9970;-36.854;174.870;2024-01-30T06:31:41;8.83;;;2.30;;
19643;SDS011;9970;-36.854;174.870;2024-01-30T06:34:14;7.37;;;4.20;;
19643;SDS011;9970;-36.854;174.870;2024-01-30T06:36:47;9.33;;;2.47;;
19643;SDS011;9970;-36.854;174.870;2024-01-30T06:39:20;7.17;;;3.07;;
19643;SDS011;9970;-36.854;174.870;2024-01-30T06:41:54;8.30;;;3.33;;
19643;SDS011;9970;-36.854;174.870;2024-01-30T06:44:27;4.27;;;2.23;;
19643;SDS011;9970;-36.854;174.870;2024-01-30T06:47:00;3.70;;;3.33;;
19643;SDS011;9970;-36.854;174.870;2024-01-30T06:49:33;8.90;;;2.87;;
19643;SDS011;9970;-36.854;174.870;2024-01-30T06:52:07;17.90;;;3.20;;
19643;SDS011;9970;-36.854;174.870;2024-01-30T06:54:44;4.40;;;2.83;;
19643;SDS011;9970;-36.854;174.870;2024-01-30T06:57:17;8.33;;;2.53;;
19643;SDS011;9970;-36.854;174.870;2024-01-30T06:59:50;6.17;;;3.13;;
19643;SDS011;9970;-36.854;174.870;2024-01-30T07:02:23;6.03;;;3.60;;
19643;SDS011;9970;-36.854;174.870;2024-01-30T07:04:56;7.33;;;3.40;;
19643;SDS011;9970;-36.854;174.870;2024-01-30T07:07:29;16.60;;;3.70;;
19643;SDS011;9970;-36.854;174.870;2024-01-30T07:10:03;9.90;;;4.00;;
19643;SDS011;9970;-36.854;174.870;2024-01-30T07:12:37;12.73;;;3.67;;
19643;SDS011;9970;-36.854;174.870;2024-01-30T07:15:10;13.07;;;3.43;;
19643;SDS011;9970;-36.854;174.870;2024-01-30T07:17:44;15.63;;;4.00;;
19643;SDS011;9970;-36.854;174.870;2024-01-30T07:20:18;13.67;;;3.70;;
19643;SDS011;9970;-36.854;174.870;2024-01-30T07:22:51;12.93;;;4.53;;
19643;SDS011;9970;-36.854;174.870;2024-01-30T07:25:24;8.93;;;3.77;;
19643;SDS011;9970;-36.854;174.870;2024-01-30T07:27:57;9.40;;;3.60;;
19643;SDS011;9970;-36.854;174.870;2024-01-30T07:30:30;14.10;;;3.93;;
19643;SDS011;9970;-36.854;174.870;2024-01-30T07:33:03;17.20;;;4.30;;
19643;SDS011;9970;-36.854;174.870;2024-01-30T07:35:36;8.70;;;3.77;;
19643;SDS011;9970;-36.854;174.870;2024-01-30T07:38:09;8.67;;;3.20;;
19643;SDS011;9970;-36.854;174.870;2024-01-30T07:40:42;16.33;;;4.10;;
19643;SDS011;9970;-36.854;174.870;2024-01-30T07:43:16;14.30;;;4.40;;
19643;SDS011;9970;-36.854;174.870;2024-01-30T07:45:49;19.13;;;4.70;;
19643;SDS011;9970;-36.854;174.870;2024-01-30T07:51:16;8.10;;;4.43;;
19643;SDS011;9970;-36.854;174.870;2024-01-30T07:53:49;17.30;;;5.17;;
19643;SDS011;9970;-36.854;174.870;2024-01-30T07:56:22;9.87;;;3.20;;
19643;SDS011;9970;-36.854;174.870;2024-01-30T07:58:55;8.43;;;4.10;;
19643;SDS011;9970;-36.854;174.870;2024-01-30T08:01:28;8.57;;;4.00;;
19643;SDS011;9970;-36.854;174.870;2024-01-30T08:04:01;15.17;;;4.77;;
19643;SDS011;9970;-36.854;174.870;2024-01-30T08:06:34;9.60;;;3.80;;
19643;SDS011;9970;-36.854;174.870;2024-01-30T08:09:09;13.80;;;3.70;;
19643;SDS011;9970;-36.854;174.870;2024-01-30T08:11:42;10.73;;;4.00;;
19643;SDS011;9970;-36.854;174.870;2024-01-30T08:14:15;11.70;;;3.90;;
19643;SDS011;9970;-36.854;174.870;2024-01-30T08:16:48;16.93;;;4.10;;
19643;SDS011;9970;-36.854;174.870;2024-01-30T08:19:21;15.60;;;3.70;;
19643;SDS011;9970;-36.854;174.870;2024-01-30T08:21:54;14.20;;;3.37;;
19643;SDS011;9970;-36.854;174.870;2024-01-30T08:24:27;16.47;;;3.80;;
19643;SDS011;9970;-36.854;174.870;2024-01-30T08:27:05;11.03;;;4.57;;
19643;SDS011;9970;-36.854;174.870;2024-01-30T08:29:39;10.93;;;4.13;;
19643;SDS011;9970;-36.854;174.870;2024-01-30T08:32:16;16.27;;;3.70;;
19643;SDS011;9970;-36.854;174.870;2024-01-30T08:34:49;17.30;;;4.77;;
19643;SDS011;9970;-36.854;174.870;2024-01-30T08:37:23;12.33;;;3.47;;
19643;SDS011;9970;-36.854;174.870;2024-01-30T08:39:56;16.40;;;4.30;;
19643;SDS011;9970;-36.854;174.870;2024-01-30T08:42:29;14.87;;;4.40;;
19643;SDS011;9970;-36.854;174.870;2024-01-30T08:45:03;15.30;;;4.87;;
19643;SDS011;9970;-36.854;174.870;2024-01-30T08:47:36;13.03;;;3.80;;
19643;SDS011;9970;-36.854;174.870;2024-01-30T08:50:09;6.40;;;3.73;;
19643;SDS011;9970;-36.854;174.870;2024-01-30T08:52:42;14.27;;;4.93;;
19643;SDS011;9970;-36.854;174.870;2024-01-30T08:55:16;7.80;;;3.80;;
19643;SDS011;9970;-36.854;174.870;2024-01-30T08:57:50;11.53;;;4.53;;
19643;SDS011;9970;-36.854;174.870;2024-01-30T09:00:23;20.53;;;3.87;;
19643;SDS011;9970;-36.854;174.870;2024-01-30T09:02:56;12.20;;;3.80;;
19643;SDS011;9970;-36.854;174.870;2024-01-30T09:05:30;6.87;;;3.23;;
19643;SDS011;9970;-36.854;174.870;2024-01-30T09:08:02;15.27;;;4.20;;
19643;SDS011;9970;-36.854;174.870;2024-01-30T09:10:36;6.97;;;3.80;;
19643;SDS011;9970;-36.854;174.870;2024-01-30T09:13:10;16.73;;;4.00;;
19643;SDS011;9970;-36.854;174.870;2024-01-30T09:15:43;15.43;;;4.47;;
19643;SDS011;9970;-36.854;174.870;2024-01-30T09:18:16;5.80;;;2.83;;
19643;SDS011;9970;-36.854;174.870;2024-01-30T09:20:49;9.47;;;3.70;;
19643;SDS011;9970;-36.854;174.870;2024-01-30T09:23:23;12.13;;;3.50;;
19643;SDS011;9970;-36.854;174.870;2024-01-30T09:25:56;14.97;;;3.73;;
19643;SDS011;9970;-36.854;174.870;2024-01-30T09:28:30;13.50;;;5.03;;
19643;SDS011;9970;-36.854;174.870;2024-01-30T09:31:04;11.77;;;3.87;;
19643;SDS011;9970;-36.854;174.870;2024-01-30T09:33:38;11.13;;;3.70;;
19643;SDS011;9970;-36.854;174.870;2024-01-30T09:36:13;8.33;;;3.70;;
19643;SDS011;9970;-36.854;174.870;2024-01-30T09:38:47;7.50;;;3.30;;
19643;SDS011;9970;-36.854;174.870;2024-01-30T09:41:20;11.43;;;3.70;;
19643;SDS011;9970;-36.854;174.870;2024-01-30T09:43:55;11.90;;;4.20;;
19643;SDS011;9970;-36.854;174.870;2024-01-30T09:46:28;12.63;;;4.10;;
19643;SDS011;9970;-36.854;174.870;2024-01-30T09:49:03;11.60;;;4.97;;
19643;SDS011;9970;-36.854;174.870;2024-01-30T09:51:37;9.77;;;3.53;;
19643;SDS011;9970;-36.854;174.870;2024-01-30T09:54:11;12.93;;;4.00;;
19643;SDS011;9970;-36.854;174.870;2024-01-30T09:56:45;16.67;;;4.37;;
19643;SDS011;9970;-36.854;174.870;2024-01-30T09:59:19;10.73;;;4.83;;
19643;SDS011;9970;-36.854;174.870;2024-01-30T10:01:52;7.63;;;3.70;;
19643;SDS011;9970;-36.854;174.870;2024-01-30T10:04:30;12.63;;;3.83;;
19643;SDS011;9970;-36.854;174.870;2024-01-30T10:07:03;9.87;;;4.03;;
19643;SDS011;9970;-36.854;174.870;2024-01-30T10:09:36;14.07;;;5.03;;
19643;SDS011;9970;-36.854;174.870;2024-01-30T10:12:09;14.87;;;4.10;;
19643;SDS011;9970;-36.854;174.870;2024-01-30T10:14:43;9.33;;;3.77;;
19643;SDS011;9970;-36.854;174.870;2024-01-30T10:17:16;13.73;;;4.57;;
19643;SDS011;9970;-36.854;174.870;2024-01-30T10:19:51;17.27;;;4.43;;
19643;SDS011;9970;-36.854;174.870;2024-01-30T10:22:24;17.93;;;5.07;;
19643;SDS011;9970;-36.854;174.870;2024-01-30T10:24:58;15.67;;;3.90;;
19643;SDS011;9970;-36.854;174.870;2024-01-30T10:27:32;12.67;;;3.60;;
19643;SDS011;9970;-36.854;174.870;2024-01-30T10:30:05;9.70;;;4.63;;
19643;SDS011;9970;-36.854;174.870;2024-01-30T10:32:39;12.00;;;3.93;;
19643;SDS011;9970;-36.854;174.870;2024-01-30T10:35:12;9.80;;;4.13;;
19643;SDS011;9970;-36.854;174.870;2024-01-30T10:37:49;15.27;;;5.03;;
19643;SDS011;9970;-36.854;174.870;2024-01-30T10:40:30;14.00;;;4.50;;
19643;SDS011;9970;-36.854;174.870;2024-01-30T10:43:00;9.90;;;4.57;;
19643;SDS011;9970;-36.854;174.870;2024-01-30T10:45:35;9.40;;;3.70;;
19643;SDS011;9970;-36.854;174.870;2024-01-30T10:48:09;9.47;;;3.60;;
19643;SDS011;9970;-36.854;174.870;2024-01-30T10:50:45;15.30;;;5.37;;
19643;SDS011;9970;-36.854;174.870;2024-01-30T10:53:20;7.87;;;4.43;;
19643;SDS011;9970;-36.854;174.870;2024-01-30T10:55:56;11.40;;;4.53;;
19643;SDS011;9970;-36.854;174.870;2024-01-30T10:58:30;8.50;;;3.87;;
19643;SDS011;9970;-36.854;174.870;2024-01-30T11:01:03;16.90;;;5.60;;
19643;SDS011;9970;-36.854;174.870;2024-01-30T11:03:37;18.17;;;4.77;;
19643;SDS011;9970;-36.854;174.870;2024-01-30T11:06:13;18.40;;;4.70;;
19643;SDS011;9970;-36.854;174.870;2024-01-30T11:09:10;16.90;;;4.50;;
19643;SDS011;9970;-36.854;174.870;2024-01-30T11:11:48;19.90;;;6.37;;
19643;SDS011;9970;-36.854;174.870;2024-01-30T11:14:26;14.67;;;4.70;;
19643;SDS011;9970;-36.854;174.870;2024-01-30T11:17:00;17.57;;;3.57;;
19643;SDS011;9970;-36.854;174.870;2024-01-30T11:19:34;14.00;;;3.73;;
19643;SDS011;9970;-36.854;174.870;2024-01-30T11:22:07;14.13;;;4.10;;
19643;SDS011;9970;-36.854;174.870;2024-01-30T11:24:42;14.00;;;4.03;;
19643;SDS011;9970;-36.854;174.870;2024-01-30T11:27:16;10.93;;;4.23;;
19643;SDS011;9970;-36.854;174.870;2024-01-30T11:29:50;21.50;;;4.43;;
19643;SDS011;9970;-36.854;174.870;2024-01-30T11:32:23;11.93;;;4.27;;
19643;SDS011;9970;-36.854;174.870;2024-01-30T11:34:56;15.77;;;4.60;;
19643;SDS011;9970;-36.854;174.870;2024-01-30T11:37:33;17.73;;;4.60;;
19643;SDS011;9970;-36.854;174.870;2024-01-30T11:40:09;15.80;;;4.63;;
19643;SDS011;9970;-36.854;174.870;2024-01-30T11:42:42;25.13;;;5.10;;
19643;SDS011;9970;-36.854;174.870;2024-01-30T11:45:17;19.03;;;4.40;;
19643;SDS011;9970;-36.854;174.870;2024-01-30T11:47:50;10.63;;;4.47;;
19643;SDS011;9970;-36.854;174.870;2024-01-30T11:50:24;14.20;;;4.23;;
19643;SDS011;9970;-36.854;174.870;2024-01-30T11:52:57;15.03;;;4.90;;
19643;SDS011;9970;-36.854;174.870;2024-01-30T11:55:31;12.37;;;4.47;;
19643;SDS011;9970;-36.854;174.870;2024-01-30T11:58:06;12.33;;;4.50;;
19643;SDS011;9970;-36.854;174.870;2024-01-30T12:00:39;17.77;;;3.90;;
19643;SDS011;9970;-36.854;174.870;2024-01-30T12:03:12;13.87;;;4.70;;
19643;SDS011;9970;-36.854;174.870;2024-01-30T12:05:58;15.47;;;3.70;;
19643;SDS011;9970;-36.854;174.870;2024-01-30T12:08:30;20.67;;;4.80;;
19643;SDS011;9970;-36.854;174.870;2024-01-30T12:11:06;20.73;;;4.77;;
19643;SDS011;9970;-36.854;174.870;2024-01-30T12:13:38;14.33;;;4.63;;
19643;SDS011;9970;-36.854;174.870;2024-01-30T12:16:11;14.97;;;3.83;;
19643;SDS011;9970;-36.854;174.870;2024-01-30T12:18:44;11.23;;;4.13;;
19643;SDS011;9970;-36.854;174.870;2024-01-30T12:21:18;16.37;;;4.23;;
19643;SDS011;9970;-36.854;174.870;2024-01-30T12:23:51;12.47;;;4.03;;
19643;SDS011;9970;-36.854;174.870;2024-01-30T12:26:24;12.37;;;4.20;;
19643;SDS011;9970;-36.854;174.870;2024-01-30T12:28:57;15.03;;;4.20;;
19643;SDS011;9970;-36.854;174.870;2024-01-30T12:31:31;5.47;;;3.10;;
19643;SDS011;9970;-36.854;174.870;2024-01-30T12:34:05;14.90;;;3.80;;
19643;SDS011;9970;-36.854;174.870;2024-01-30T12:36:38;14.20;;;4.93;;
19643;SDS011;9970;-36.854;174.870;2024-01-30T12:39:11;11.80;;;3.73;;
19643;SDS011;9970;-36.854;174.870;2024-01-30T12:41:45;16.97;;;4.77;;
19643;SDS011;9970;-36.854;174.870;2024-01-30T12:44:18;12.30;;;4.03;;
19643;SDS011;9970;-36.854;174.870;2024-01-30T12:46:51;13.80;;;4.80;;
19643;SDS011;9970;-36.854;174.870;2024-01-30T12:49:25;11.87;;;3.97;;
19643;SDS011;9970;-36.854;174.870;2024-01-30T12:51:59;14.93;;;3.23;;
19643;SDS011;9970;-36.854;174.870;2024-01-30T12:54:32;21.57;;;3.90;;
19643;SDS011;9970;-36.854;174.870;2024-01-30T12:57:05;18.57;;;4.67;;
19643;SDS011;9970;-36.854;174.870;2024-01-30T12:59:38;12.90;;;3.80;;
19643;SDS011;9970;-36.854;174.870;2024-01-30T13:02:12;12.43;;;3.70;;
19643;SDS011;9970;-36.854;174.870;2024-01-30T13:04:46;9.30;;;2.90;;
19643;SDS011;9970;-36.854;174.870;2024-01-30T13:07:19;14.47;;;4.20;;
19643;SDS011;9970;-36.854;174.870;2024-01-30T13:09:52;6.50;;;3.60;;
19643;SDS011;9970;-36.854;174.870;2024-01-30T13:12:25;12.13;;;3.77;;
19643;SDS011;9970;-36.854;174.870;2024-01-30T13:15:03;8.93;;;5.17;;
19643;SDS011;9970;-36.854;174.870;2024-01-30T13:17:37;13.73;;;5.40;;
19643;SDS011;9970;-36.854;174.870;2024-01-30T13:20:11;18.10;;;4.17;;
19643;SDS011;9970;-36.854;174.870;2024-01-30T13:22:46;11.93;;;4.60;;
19643;SDS011;9970;-36.854;174.870;2024-01-30T13:25:19;12.20;;;3.10;;
19643;SDS011;9970;-36.854;174.870;2024-01-30T13:27:53;9.60;;;3.27;;
19643;SDS011;9970;-36.854;174.870;2024-01-30T13:30:26;11.10;;;3.67;;
19643;SDS011;9970;-36.854;174.870;2024-01-30T13:32:59;27.73;;;5.90;;
19643;SDS011;9970;-36.854;174.870;2024-01-30T13:35:33;8.33;;;3.27;;
19643;SDS011;9970;-36.854;174.870;2024-01-30T13:38:06;7.27;;;3.83;;
19643;SDS011;9970;-36.854;174.870;2024-01-30T13:40:40;14.97;;;4.80;;
19643;SDS011;9970;-36.854;174.870;2024-01-30T13:43:13;12.83;;;3.57;;
19643;SDS011;9970;-36.854;174.870;2024-01-30T13:45:47;9.33;;;4.00;;
19643;SDS011;9970;-36.854;174.870;2024-01-30T13:48:20;10.03;;;3.87;;
19643;SDS011;9970;-36.854;174.870;2024-01-30T13:50:53;13.63;;;4.27;;
19643;SDS011;9970;-36.854;174.870;2024-01-30T13:53:27;8.20;;;3.13;;
19643;SDS011;9970;-36.854;174.870;2024-01-30T13:56:00;7.20;;;3.60;;
19643;SDS011;9970;-36.854;174.870;2024-01-30T13:58:33;10.33;;;3.90;;
19643;SDS011;9970;-36.854;174.870;2024-01-30T14:01:06;14.50;;;4.40;;
19643;SDS011;9970;-36.854;174.870;2024-01-30T14:03:39;8.83;;;3.47;;
19643;SDS011;9970;-36.854;174.870;2024-01-30T14:06:13;12.73;;;3.63;;
19643;SDS011;9970;-36.854;174.870;2024-01-30T14:08:46;6.80;;;4.10;;
19643;SDS011;9970;-36.854;174.870;2024-01-30T14:11:20;9.67;;;4.00;;
19643;SDS011;9970;-36.854;174.870;2024-01-30T14:13:53;18.10;;;4.30;;
19643;SDS011;9970;-36.854;174.870;2024-01-30T14:16:27;7.47;;;3.90;;
19643;SDS011;9970;-36.854;174.870;2024-01-30T14:19:00;13.70;;;3.70;;
19643;SDS011;9970;-36.854;174.870;2024-01-30T14:21:34;14.93;;;3.50;;
19643;SDS011;9970;-36.854;174.870;2024-01-30T14:24:08;11.90;;;3.30;;
19643;SDS011;9970;-36.854;174.870;2024-01-30T14:26:41;7.67;;;3.77;;
19643;SDS011;9970;-36.854;174.870;2024-01-30T14:29:14;8.00;;;4.30;;
19643;SDS011;9970;-36.854;174.870;2024-01-30T14:31:47;9.73;;;3.93;;
19643;SDS011;9970;-36.854;174.870;2024-01-30T14:34:20;9.87;;;3.00;;
19643;SDS011;9970;-36.854;174.870;2024-01-30T14:36:53;10.03;;;4.40;;
19643;SDS011;9970;-36.854;174.870;2024-01-30T14:39:26;8.87;;;3.50;;
19643;SDS011;9970;-36.854;174.870;2024-01-30T14:41:59;12.63;;;4.83;;
19643;SDS011;9970;-36.854;174.870;2024-01-30T14:44:35;13.53;;;3.40;;
19643;SDS011;9970;-36.854;174.870;2024-01-30T14:47:09;12.30;;;3.80;;
19643;SDS011;9970;-36.854;174.870;2024-01-30T14:49:42;9.73;;;4.10;;
19643;SDS011;9970;-36.854;174.870;2024-01-30T14:52:16;9.20;;;3.30;;
19643;SDS011;9970;-36.854;174.870;2024-01-30T14:54:49;8.47;;;3.10;;
19643;SDS011;9970;-36.854;174.870;2024-01-30T14:57:22;9.30;;;3.73;;